sensor_id;sensor_type;location;lat;lon;timestamp;P1;durP1;ratioP1;P2;durP2;ratioP2
50429;SDS011;36359;41.556;-8.418;2023-03-20T00:00:11;8.37;;;5.70;;
50429;SDS011;36359;41.556;-8.418;2023-03-20T00:02:41;9.50;;;5.60;;
50429;SDS011;36359;41.556;-8.418;2023-03-20T00:05:25;10.23;;;5.43;;
50429;SDS011;36359;41.556;-8.418;2023-03-20T00:07:53;8.93;;;5.17;;
50429;SDS011;36359;41.556;-8.418;2023-03-20T00:10:19;9.32;;;5.35;;
50429;SDS011;36359;41.556;-8.418;2023-03-20T00:12:47;8.87;;;5.60;;
50429;SDS011;36359;41.556;-8.418;2023-03-20T00:15:28;9.70;;;4.97;;
50429;SDS011;36359;41.556;-8.418;2023-03-20T00:17:57;8.73;;;5.70;;
50429;SDS011;36359;41.556;-8.418;2023-03-20T00:20:23;13.87;;;8.93;;
50429;SDS011;36359;41.556;-8.418;2023-03-20T00:22:49;7.90;;;5.53;;
50429;SDS011;36359;41.556;-8.418;2023-03-20T00:25:16;12.77;;;8.53;;
50429;SDS011;36359;41.556;-8.418;2023-03-20T00:27:44;15.03;;;8.73;;
50429;SDS011;36359;41.556;-8.418;2023-03-20T00:32:54;13.60;;;10.10;;
50429;SDS011;36359;41.556;-8.418;2023-03-20T00:35:22;11.97;;;9.43;;
50429;SDS011;36359;41.556;-8.418;2023-03-20T00:37:54;12.93;;;10.20;;
50429;SDS011;36359;41.556;-8.418;2023-03-20T00:40:21;14.17;;;10.37;;
50429;SDS011;36359;41.556;-8.418;2023-03-20T00:42:53;16.65;;;10.50;;
50429;SDS011;36359;41.556;-8.418;2023-03-20T00:45:23;13.10;;;10.73;;
50429;SDS011;36359;41.556;-8.418;2023-03-20T00:47:49;15.50;;;11.17;;
50429;SDS011;36359;41.556;-8.418;2023-03-20T00:50:17;16.10;;;10.57;;
50429;SDS011;36359;41.556;-8.418;2023-03-20T00:52:50;14.17;;;9.80;;
50429;SDS011;36359;41.556;-8.418;2023-03-20T00:55:19;13.53;;;8.23;;
50429;SDS011;36359;41.556;-8.418;2023-03-20T00:57:53;13.67;;;8.43;;
50429;SDS011;36359;41.556;-8.418;2023-03-20T01:03:12;15.57;;;10.50;;
50429;SDS011;36359;41.556;-8.418;2023-03-20T01:05:46;12.57;;;10.30;;
50429;SDS011;36359;41.556;-8.418;2023-03-20T01:08:17;16.47;;;10.90;;
50429;SDS011;36359;41.556;-8.418;2023-03-20T01:10:48;16.50;;;12.90;;
50429;SDS011;36359;41.556;-8.418;2023-03-20T01:13:24;18.37;;;12.90;;
50429;SDS011;36359;41.556;-8.418;2023-03-20T01:15:53;16.97;;;12.90;;
50429;SDS011;36359;41.556;-8.418;2023-03-20T01:18:22;18.40;;;13.13;;
50429;SDS011;36359;41.556;-8.418;2023-03-20T01:20:50;14.73;;;12.10;;
50429;SDS011;36359;41.556;-8.418;2023-03-20T01:23:19;16.77;;;11.43;;
50429;SDS011;36359;41.556;-8.418;2023-03-20T01:25:47;15.73;;;11.70;;
50429;SDS011;36359;41.556;-8.418;2023-03-20T01:28:15;16.97;;;12.67;;
50429;SDS011;36359;41.556;-8.418;2023-03-20T01:30:43;16.00;;;12.10;;
50429;SDS011;36359;41.556;-8.418;2023-03-20T01:33:20;16.10;;;10.73;;
50429;SDS011;36359;41.556;-8.418;2023-03-20T01:35:52;17.83;;;12.47;;
50429;SDS011;36359;41.556;-8.418;2023-03-20T01:38:22;15.70;;;12.57;;
50429;SDS011;36359;41.556;-8.418;2023-03-20T01:43:30;19.23;;;12.97;;
50429;SDS011;36359;41.556;-8.418;2023-03-20T01:51:16;14.87;;;11.00;;
50429;SDS011;36359;41.556;-8.418;2023-03-20T01:53:42;15.53;;;10.60;;
50429;SDS011;36359;41.556;-8.418;2023-03-20T01:56:09;15.10;;;9.73;;
50429;SDS011;36359;41.556;-8.418;2023-03-20T01:58:44;12.67;;;9.73;;
50429;SDS011;36359;41.556;-8.418;2023-03-20T02:01:14;13.30;;;9.02;;
50429;SDS011;36359;41.556;-8.418;2023-03-20T02:03:43;13.23;;;8.53;;
50429;SDS011;36359;41.556;-8.418;2023-03-20T02:06:35;12.50;;;8.37;;
50429;SDS011;36359;41.556;-8.418;2023-03-20T02:09:10;13.73;;;8.97;;
50429;SDS011;36359;41.556;-8.418;2023-03-20T02:11:40;10.20;;;7.93;;
50429;SDS011;36359;41.556;-8.418;2023-03-20T02:14:07;12.47;;;8.60;;
50429;SDS011;36359;41.556;-8.418;2023-03-20T02:16:54;10.70;;;8.20;;
50429;SDS011;36359;41.556;-8.418;2023-03-20T02:19:57;12.63;;;7.97;;
50429;SDS011;36359;41.556;-8.418;2023-03-20T02:31:41;9.93;;;7.43;;
50429;SDS011;36359;41.556;-8.418;2023-03-20T02:40:20;9.20;;;5.93;;
50429;SDS011;36359;41.556;-8.418;2023-03-20T02:43:01;9.70;;;6.80;;
50429;SDS011;36359;41.556;-8.418;2023-03-20T02:48:23;8.93;;;6.20;;
50429;SDS011;36359;41.556;-8.418;2023-03-20T02:51:03;9.47;;;5.83;;
50429;SDS011;36359;41.556;-8.418;2023-03-20T02:56:22;9.83;;;6.10;;
50429;SDS011;36359;41.556;-8.418;2023-03-20T02:59:13;10.47;;;6.07;;
50429;SDS011;36359;41.556;-8.418;2023-03-20T03:01:47;12.65;;;6.38;;
50429;SDS011;36359;41.556;-8.418;2023-03-20T03:04:21;8.33;;;6.13;;
50429;SDS011;36359;41.556;-8.418;2023-03-20T03:06:50;7.18;;;5.80;;
50429;SDS011;36359;41.556;-8.418;2023-03-20T03:09:30;6.67;;;5.30;;
50429;SDS011;36359;41.556;-8.418;2023-03-20T03:14:40;8.47;;;5.63;;
50429;SDS011;36359;41.556;-8.418;2023-03-20T03:17:13;7.47;;;5.63;;
50429;SDS011;36359;41.556;-8.418;2023-03-20T03:19:46;7.17;;;5.60;;
50429;SDS011;36359;41.556;-8.418;2023-03-20T03:22:14;8.27;;;5.47;;
50429;SDS011;36359;41.556;-8.418;2023-03-20T03:24:45;8.70;;;6.33;;
50429;SDS011;36359;41.556;-8.418;2023-03-20T03:27:19;6.30;;;5.47;;
50429;SDS011;36359;41.556;-8.418;2023-03-20T03:30:03;7.33;;;5.80;;
50429;SDS011;36359;41.556;-8.418;2023-03-20T03:32:45;8.37;;;5.80;;
50429;SDS011;36359;41.556;-8.418;2023-03-20T03:35:16;9.93;;;6.50;;
50429;SDS011;36359;41.556;-8.418;2023-03-20T03:43:16;7.97;;;6.38;;
50429;SDS011;36359;41.556;-8.418;2023-03-20T03:45:52;7.87;;;6.10;;
50429;SDS011;36359;41.556;-8.418;2023-03-20T03:48:46;6.87;;;5.00;;
50429;SDS011;36359;41.556;-8.418;2023-03-20T03:51:15;7.50;;;5.18;;
50429;SDS011;36359;41.556;-8.418;2023-03-20T03:57:39;11.97;;;8.43;;
50429;SDS011;36359;41.556;-8.418;2023-03-20T04:00:13;12.07;;;8.40;;
50429;SDS011;36359;41.556;-8.418;2023-03-20T04:02:44;11.67;;;8.57;;
50429;SDS011;36359;41.556;-8.418;2023-03-20T04:05:13;12.13;;;8.73;;
50429;SDS011;36359;41.556;-8.418;2023-03-20T04:07:45;11.93;;;8.60;;
50429;SDS011;36359;41.556;-8.418;2023-03-20T04:10:13;8.90;;;7.45;;
50429;SDS011;36359;41.556;-8.418;2023-03-20T04:12:40;9.20;;;6.90;;
50429;SDS011;36359;41.556;-8.418;2023-03-20T04:15:08;11.00;;;7.13;;
50429;SDS011;36359;41.556;-8.418;2023-03-20T04:17:35;10.73;;;7.67;;
50429;SDS011;36359;41.556;-8.418;2023-03-20T04:20:02;10.53;;;8.77;;
50429;SDS011;36359;41.556;-8.418;2023-03-20T04:22:28;10.53;;;8.03;;
50429;SDS011;36359;41.556;-8.418;2023-03-20T04:25:01;7.30;;;6.03;;
50429;SDS011;36359;41.556;-8.418;2023-03-20T04:27:28;11.63;;;8.30;;
50429;SDS011;36359;41.556;-8.418;2023-03-20T04:29:55;10.97;;;7.40;;
50429;SDS011;36359;41.556;-8.418;2023-03-20T04:35:18;9.00;;;6.63;;
50429;SDS011;36359;41.556;-8.418;2023-03-20T04:37:50;6.93;;;4.93;;
50429;SDS011;36359;41.556;-8.418;2023-03-20T04:40:17;6.67;;;5.33;;
50429;SDS011;36359;41.556;-8.418;2023-03-20T04:42:43;8.20;;;5.00;;
50429;SDS011;36359;41.556;-8.418;2023-03-20T04:45:10;6.30;;;4.67;;
50429;SDS011;36359;41.556;-8.418;2023-03-20T04:47:37;5.83;;;4.00;;
50429;SDS011;36359;41.556;-8.418;2023-03-20T04:50:04;7.80;;;5.77;;
50429;SDS011;36359;41.556;-8.418;2023-03-20T04:52:31;10.03;;;6.50;;
50429;SDS011;36359;41.556;-8.418;2023-03-20T04:54:57;8.50;;;6.77;;
50429;SDS011;36359;41.556;-8.418;2023-03-20T04:57:23;12.53;;;6.67;;
50429;SDS011;36359;41.556;-8.418;2023-03-20T04:59:49;9.33;;;6.87;;
50429;SDS011;36359;41.556;-8.418;2023-03-20T05:02:16;11.10;;;8.23;;
50429;SDS011;36359;41.556;-8.418;2023-03-20T05:04:42;9.73;;;7.30;;
50429;SDS011;36359;41.556;-8.418;2023-03-20T05:07:09;10.07;;;7.00;;
50429;SDS011;36359;41.556;-8.418;2023-03-20T05:09:47;10.67;;;7.50;;
50429;SDS011;36359;41.556;-8.418;2023-03-20T05:12:13;9.53;;;8.13;;
50429;SDS011;36359;41.556;-8.418;2023-03-20T05:14:58;11.23;;;8.43;;
50429;SDS011;36359;41.556;-8.418;2023-03-20T05:17:24;12.70;;;8.70;;
50429;SDS011;36359;41.556;-8.418;2023-03-20T05:20:10;11.07;;;9.07;;
50429;SDS011;36359;41.556;-8.418;2023-03-20T05:22:52;10.67;;;8.63;;
50429;SDS011;36359;41.556;-8.418;2023-03-20T05:25:45;11.50;;;8.67;;
50429;SDS011;36359;41.556;-8.418;2023-03-20T05:28:23;12.17;;;7.63;;
50429;SDS011;36359;41.556;-8.418;2023-03-20T05:31:12;10.17;;;8.30;;
50429;SDS011;36359;41.556;-8.418;2023-03-20T05:34:02;10.47;;;8.40;;
50429;SDS011;36359;41.556;-8.418;2023-03-20T05:36:46;10.23;;;8.57;;
50429;SDS011;36359;41.556;-8.418;2023-03-20T05:39:18;12.00;;;8.67;;
50429;SDS011;36359;41.556;-8.418;2023-03-20T05:42:02;10.30;;;7.53;;
50429;SDS011;36359;41.556;-8.418;2023-03-20T05:44:48;9.07;;;7.70;;
50429;SDS011;36359;41.556;-8.418;2023-03-20T05:47:40;11.37;;;8.73;;
50429;SDS011;36359;41.556;-8.418;2023-03-20T05:50:21;10.65;;;8.10;;
50429;SDS011;36359;41.556;-8.418;2023-03-20T05:52:57;10.70;;;8.07;;
50429;SDS011;36359;41.556;-8.418;2023-03-20T05:55:41;9.23;;;7.53;;
50429;SDS011;36359;41.556;-8.418;2023-03-20T05:58:09;9.80;;;7.73;;
50429;SDS011;36359;41.556;-8.418;2023-03-20T06:01:02;7.30;;;6.03;;
50429;SDS011;36359;41.556;-8.418;2023-03-20T06:03:48;8.00;;;7.00;;
50429;SDS011;36359;41.556;-8.418;2023-03-20T06:06:21;9.23;;;8.03;;
50429;SDS011;36359;41.556;-8.418;2023-03-20T06:08:49;12.00;;;8.80;;
50429;SDS011;36359;41.556;-8.418;2023-03-20T06:11:16;12.63;;;8.60;;
50429;SDS011;36359;41.556;-8.418;2023-03-20T06:13:42;9.10;;;6.73;;
50429;SDS011;36359;41.556;-8.418;2023-03-20T06:16:09;8.67;;;7.77;;
50429;SDS011;36359;41.556;-8.418;2023-03-20T06:18:36;10.33;;;8.13;;
50429;SDS011;36359;41.556;-8.418;2023-03-20T06:21:04;11.47;;;8.23;;
50429;SDS011;36359;41.556;-8.418;2023-03-20T06:23:31;10.77;;;8.33;;
50429;SDS011;36359;41.556;-8.418;2023-03-20T06:25:59;9.60;;;7.40;;
50429;SDS011;36359;41.556;-8.418;2023-03-20T06:28:26;10.47;;;8.23;;
50429;SDS011;36359;41.556;-8.418;2023-03-20T06:30:59;9.73;;;8.17;;
50429;SDS011;36359;41.556;-8.418;2023-03-20T06:35:54;10.60;;;7.40;;
50429;SDS011;36359;41.556;-8.418;2023-03-20T06:38:20;13.23;;;8.07;;
50429;SDS011;36359;41.556;-8.418;2023-03-20T06:40:46;10.33;;;8.07;;
50429;SDS011;36359;41.556;-8.418;2023-03-20T06:43:15;12.07;;;9.00;;
50429;SDS011;36359;41.556;-8.418;2023-03-20T06:45:47;11.77;;;9.00;;
50429;SDS011;36359;41.556;-8.418;2023-03-20T06:48:20;11.00;;;8.53;;
50429;SDS011;36359;41.556;-8.418;2023-03-20T06:50:47;13.50;;;9.03;;
50429;SDS011;36359;41.556;-8.418;2023-03-20T06:53:18;10.93;;;8.43;;
50429;SDS011;36359;41.556;-8.418;2023-03-20T06:55:57;12.23;;;8.47;;
50429;SDS011;36359;41.556;-8.418;2023-03-20T06:58:24;10.93;;;8.23;;
50429;SDS011;36359;41.556;-8.418;2023-03-20T07:00:50;10.27;;;7.80;;
50429;SDS011;36359;41.556;-8.418;2023-03-20T07:03:16;10.07;;;7.67;;
50429;SDS011;36359;41.556;-8.418;2023-03-20T07:05:45;13.13;;;8.93;;
50429;SDS011;36359;41.556;-8.418;2023-03-20T07:08:10;15.60;;;12.13;;
50429;SDS011;36359;41.556;-8.418;2023-03-20T07:10:36;14.97;;;11.63;;
50429;SDS011;36359;41.556;-8.418;2023-03-20T07:13:04;16.90;;;12.57;;
50429;SDS011;36359;41.556;-8.418;2023-03-20T07:15:30;15.73;;;12.47;;
50429;SDS011;36359;41.556;-8.418;2023-03-20T07:17:57;17.47;;;12.73;;
50429;SDS011;36359;41.556;-8.418;2023-03-20T07:20:25;17.30;;;13.60;;
50429;SDS011;36359;41.556;-8.418;2023-03-20T07:22:51;15.23;;;12.67;;
50429;SDS011;36359;41.556;-8.418;2023-03-20T07:25:21;13.77;;;11.05;;
50429;SDS011;36359;41.556;-8.418;2023-03-20T07:27:48;14.83;;;12.87;;
50429;SDS011;36359;41.556;-8.418;2023-03-20T07:30:17;19.20;;;17.33;;
50429;SDS011;36359;41.556;-8.418;2023-03-20T07:32:44;7.20;;;5.90;;
50429;SDS011;36359;41.556;-8.418;2023-03-20T07:35:11;13.03;;;11.57;;
50429;SDS011;36359;41.556;-8.418;2023-03-20T07:37:39;11.80;;;9.53;;
50429;SDS011;36359;41.556;-8.418;2023-03-20T07:40:06;12.57;;;10.30;;
50429;SDS011;36359;41.556;-8.418;2023-03-20T07:42:51;9.53;;;8.53;;
50429;SDS011;36359;41.556;-8.418;2023-03-20T07:45:35;11.30;;;8.80;;
50429;SDS011;36359;41.556;-8.418;2023-03-20T07:48:01;10.77;;;8.80;;
50429;SDS011;36359;41.556;-8.418;2023-03-20T07:50:26;10.77;;;8.40;;
50429;SDS011;36359;41.556;-8.418;2023-03-20T07:52:52;11.50;;;8.60;;
50429;SDS011;36359;41.556;-8.418;2023-03-20T07:55:19;13.13;;;8.73;;
50429;SDS011;36359;41.556;-8.418;2023-03-20T07:57:46;10.07;;;8.33;;
50429;SDS011;36359;41.556;-8.418;2023-03-20T08:00:14;12.37;;;9.20;;
50429;SDS011;36359;41.556;-8.418;2023-03-20T08:02:40;10.20;;;8.30;;
50429;SDS011;36359;41.556;-8.418;2023-03-20T08:05:07;14.53;;;11.93;;
50429;SDS011;36359;41.556;-8.418;2023-03-20T08:07:33;16.23;;;14.53;;
50429;SDS011;36359;41.556;-8.418;2023-03-20T08:10:00;18.83;;;17.00;;
50429;SDS011;36359;41.556;-8.418;2023-03-20T08:12:30;16.75;;;14.65;;
50429;SDS011;36359;41.556;-8.418;2023-03-20T08:14:57;13.80;;;11.73;;
50429;SDS011;36359;41.556;-8.418;2023-03-20T08:17:24;16.97;;;11.43;;
50429;SDS011;36359;41.556;-8.418;2023-03-20T08:19:54;15.57;;;13.57;;
50429;SDS011;36359;41.556;-8.418;2023-03-20T08:22:20;13.80;;;10.40;;
50429;SDS011;36359;41.556;-8.418;2023-03-20T08:24:49;12.07;;;8.90;;
50429;SDS011;36359;41.556;-8.418;2023-03-20T08:27:20;13.43;;;7.30;;
50429;SDS011;36359;41.556;-8.418;2023-03-20T08:29:45;7.03;;;5.23;;
50429;SDS011;36359;41.556;-8.418;2023-03-20T08:32:11;10.00;;;5.67;;
50429;SDS011;36359;41.556;-8.418;2023-03-20T08:34:37;8.10;;;6.10;;
50429;SDS011;36359;41.556;-8.418;2023-03-20T08:37:03;9.27;;;6.33;;
50429;SDS011;36359;41.556;-8.418;2023-03-20T08:39:29;9.40;;;7.67;;
50429;SDS011;36359;41.556;-8.418;2023-03-20T08:41:55;9.40;;;7.10;;
50429;SDS011;36359;41.556;-8.418;2023-03-20T08:44:21;9.93;;;7.83;;
50429;SDS011;36359;41.556;-8.418;2023-03-20T08:46:46;10.90;;;8.07;;
50429;SDS011;36359;41.556;-8.418;2023-03-20T08:49:12;9.67;;;7.87;;
50429;SDS011;36359;41.556;-8.418;2023-03-20T08:51:38;12.00;;;8.07;;
50429;SDS011;36359;41.556;-8.418;2023-03-20T08:54:04;11.17;;;8.70;;
50429;SDS011;36359;41.556;-8.418;2023-03-20T08:56:30;16.27;;;12.97;;
50429;SDS011;36359;41.556;-8.418;2023-03-20T08:58:55;12.70;;;8.20;;
50429;SDS011;36359;41.556;-8.418;2023-03-20T09:01:21;10.57;;;7.50;;
50429;SDS011;36359;41.556;-8.418;2023-03-20T09:03:47;8.13;;;6.70;;
50429;SDS011;36359;41.556;-8.418;2023-03-20T09:06:13;9.77;;;6.83;;
50429;SDS011;36359;41.556;-8.418;2023-03-20T09:08:39;8.97;;;6.50;;
50429;SDS011;36359;41.556;-8.418;2023-03-20T09:11:05;7.07;;;5.47;;
50429;SDS011;36359;41.556;-8.418;2023-03-20T09:13:32;10.40;;;5.60;;
50429;SDS011;36359;41.556;-8.418;2023-03-20T09:15:58;8.17;;;5.67;;
50429;SDS011;36359;41.556;-8.418;2023-03-20T09:18:24;10.70;;;6.13;;
50429;SDS011;36359;41.556;-8.418;2023-03-20T09:20:50;11.13;;;6.50;;
50429;SDS011;36359;41.556;-8.418;2023-03-20T09:23:21;8.02;;;6.88;;
50429;SDS011;36359;41.556;-8.418;2023-03-20T09:25:47;7.77;;;5.43;;
50429;SDS011;36359;41.556;-8.418;2023-03-20T09:28:12;11.27;;;7.73;;
50429;SDS011;36359;41.556;-8.418;2023-03-20T09:30:38;10.35;;;6.45;;
50429;SDS011;36359;41.556;-8.418;2023-03-20T09:33:04;13.27;;;7.50;;
50429;SDS011;36359;41.556;-8.418;2023-03-20T09:35:30;11.15;;;6.75;;
50429;SDS011;36359;41.556;-8.418;2023-03-20T09:37:56;9.95;;;6.95;;
50429;SDS011;36359;41.556;-8.418;2023-03-20T09:40:29;13.80;;;7.18;;
50429;SDS011;36359;41.556;-8.418;2023-03-20T09:48:56;8.55;;;6.10;;
50429;SDS011;36359;41.556;-8.418;2023-03-20T09:51:40;10.18;;;6.90;;
50429;SDS011;36359;41.556;-8.418;2023-03-20T09:54:50;10.55;;;7.00;;
50429;SDS011;36359;41.556;-8.418;2023-03-20T09:57:00;10.68;;;6.32;;
50429;SDS011;36359;41.556;-8.418;2023-03-20T09:59:27;9.27;;;6.78;;
50429;SDS011;36359;41.556;-8.418;2023-03-20T10:05:02;9.65;;;6.20;;
50429;SDS011;36359;41.556;-8.418;2023-03-20T10:07:39;13.35;;;6.85;;
50429;SDS011;36359;41.556;-8.418;2023-03-20T10:10:05;9.95;;;5.47;;
50429;SDS011;36359;41.556;-8.418;2023-03-20T10:12:39;9.88;;;5.70;;
50429;SDS011;36359;41.556;-8.418;2023-03-20T10:18:13;13.88;;;6.35;;
50429;SDS011;36359;41.556;-8.418;2023-03-20T10:20:59;10.98;;;6.18;;
50429;SDS011;36359;41.556;-8.418;2023-03-20T10:23:34;11.70;;;6.35;;
50429;SDS011;36359;41.556;-8.418;2023-03-20T10:26:13;13.52;;;5.85;;
50429;SDS011;36359;41.556;-8.418;2023-03-20T10:28:45;5.93;;;4.60;;
50429;SDS011;36359;41.556;-8.418;2023-03-20T10:34:07;8.80;;;4.28;;
50429;SDS011;36359;41.556;-8.418;2023-03-20T10:36:45;7.05;;;3.60;;
50429;SDS011;36359;41.556;-8.418;2023-03-20T10:42:22;6.47;;;4.00;;
50429;SDS011;36359;41.556;-8.418;2023-03-20T10:44:54;8.60;;;3.85;;
50429;SDS011;36359;41.556;-8.418;2023-03-20T10:47:29;6.53;;;3.50;;
50429;SDS011;36359;41.556;-8.418;2023-03-20T10:50:02;5.68;;;3.70;;
50429;SDS011;36359;41.556;-8.418;2023-03-20T10:52:32;6.95;;;4.22;;
50429;SDS011;36359;41.556;-8.418;2023-03-20T10:55:15;5.95;;;3.70;;
50429;SDS011;36359;41.556;-8.418;2023-03-20T10:58:28;7.45;;;3.20;;
50429;SDS011;36359;41.556;-8.418;2023-03-20T11:00:46;6.38;;;3.00;;
50429;SDS011;36359;41.556;-8.418;2023-03-20T11:03:16;6.25;;;3.33;;
50429;SDS011;36359;41.556;-8.418;2023-03-20T11:05:47;5.97;;;2.72;;
50429;SDS011;36359;41.556;-8.418;2023-03-20T11:08:36;5.28;;;2.40;;
50429;SDS011;36359;41.556;-8.418;2023-03-20T11:11:06;6.70;;;2.92;;
50429;SDS011;36359;41.556;-8.418;2023-03-20T11:13:41;5.72;;;2.88;;
50429;SDS011;36359;41.556;-8.418;2023-03-20T11:16:19;6.18;;;3.53;;
50429;SDS011;36359;41.556;-8.418;2023-03-20T11:18:51;6.15;;;3.28;;
50429;SDS011;36359;41.556;-8.418;2023-03-20T11:21:21;5.13;;;2.60;;
50429;SDS011;36359;41.556;-8.418;2023-03-20T11:23:50;6.75;;;3.20;;
50429;SDS011;36359;41.556;-8.418;2023-03-20T11:26:35;5.85;;;2.85;;
50429;SDS011;36359;41.556;-8.418;2023-03-20T11:29:06;6.35;;;3.40;;
50429;SDS011;36359;41.556;-8.418;2023-03-20T11:31:40;7.00;;;3.42;;
50429;SDS011;36359;41.556;-8.418;2023-03-20T11:36:35;8.20;;;3.65;;
50429;SDS011;36359;41.556;-8.418;2023-03-20T11:39:14;7.40;;;3.67;;
50429;SDS011;36359;41.556;-8.418;2023-03-20T11:41:47;7.60;;;3.15;;
50429;SDS011;36359;41.556;-8.418;2023-03-20T11:47:02;6.93;;;3.00;;
50429;SDS011;36359;41.556;-8.418;2023-03-20T11:49:44;8.48;;;3.50;;
50429;SDS011;36359;41.556;-8.418;2023-03-20T11:52:14;5.43;;;3.45;;
50429;SDS011;36359;41.556;-8.418;2023-03-20T11:54:46;8.07;;;3.30;;
50429;SDS011;36359;41.556;-8.418;2023-03-20T12:02:56;5.78;;;3.30;;
50429;SDS011;36359;41.556;-8.418;2023-03-20T12:07:57;17.27;;;6.28;;
50429;SDS011;36359;41.556;-8.418;2023-03-20T12:10:28;14.68;;;7.82;;
50429;SDS011;36359;41.556;-8.418;2023-03-20T12:13:00;7.43;;;4.03;;
50429;SDS011;36359;41.556;-8.418;2023-03-20T12:15:32;7.55;;;3.85;;
50429;SDS011;36359;41.556;-8.418;2023-03-20T12:21:03;6.53;;;3.45;;
50429;SDS011;36359;41.556;-8.418;2023-03-20T12:23:44;5.95;;;3.40;;
50429;SDS011;36359;41.556;-8.418;2023-03-20T12:28:51;9.02;;;4.38;;
50429;SDS011;36359;41.556;-8.418;2023-03-20T12:31:28;8.70;;;5.18;;
50429;SDS011;36359;41.556;-8.418;2023-03-20T12:39:24;9.50;;;5.28;;
50429;SDS011;36359;41.556;-8.418;2023-03-20T12:44:51;11.50;;;5.63;;
50429;SDS011;36359;41.556;-8.418;2023-03-20T12:55:32;5.78;;;2.30;;
50429;SDS011;36359;41.556;-8.418;2023-03-20T13:01:03;5.85;;;2.85;;
50429;SDS011;36359;41.556;-8.418;2023-03-20T13:06:39;2.55;;;1.42;;
50429;SDS011;36359;41.556;-8.418;2023-03-20T13:15:33;7.57;;;2.72;;
50429;SDS011;36359;41.556;-8.418;2023-03-20T13:18:29;3.67;;;2.47;;
50429;SDS011;36359;41.556;-8.418;2023-03-20T13:21:26;3.90;;;1.95;;
50429;SDS011;36359;41.556;-8.418;2023-03-20T13:26:36;3.85;;;1.90;;
50429;SDS011;36359;41.556;-8.418;2023-03-20T13:29:11;3.10;;;2.17;;
50429;SDS011;36359;41.556;-8.418;2023-03-20T13:37:39;6.40;;;2.13;;
50429;SDS011;36359;41.556;-8.418;2023-03-20T13:40:19;4.15;;;2.25;;
50429;SDS011;36359;41.556;-8.418;2023-03-20T13:46:09;5.72;;;2.00;;
50429;SDS011;36359;41.556;-8.418;2023-03-20T13:48:44;5.47;;;2.20;;
50429;SDS011;36359;41.556;-8.418;2023-03-20T13:51:43;4.82;;;2.40;;
50429;SDS011;36359;41.556;-8.418;2023-03-20T14:04:03;6.45;;;2.60;;
50429;SDS011;36359;41.556;-8.418;2023-03-20T14:09:00;4.70;;;2.20;;
50429;SDS011;36359;41.556;-8.418;2023-03-20T14:11:56;4.38;;;2.40;;
50429;SDS011;36359;41.556;-8.418;2023-03-20T14:15:37;4.65;;;2.50;;
50429;SDS011;36359;41.556;-8.418;2023-03-20T14:18:14;4.25;;;1.98;;
50429;SDS011;36359;41.556;-8.418;2023-03-20T14:20:42;4.53;;;1.67;;
50429;SDS011;36359;41.556;-8.418;2023-03-20T14:23:17;5.28;;;1.45;;
50429;SDS011;36359;41.556;-8.418;2023-03-20T14:25:56;18.23;;;5.43;;
50429;SDS011;36359;41.556;-8.418;2023-03-20T14:28:27;5.05;;;1.73;;
50429;SDS011;36359;41.556;-8.418;2023-03-20T14:31:40;6.45;;;3.05;;
50429;SDS011;36359;41.556;-8.418;2023-03-20T14:33:58;5.35;;;2.30;;
50429;SDS011;36359;41.556;-8.418;2023-03-20T14:53:11;8.68;;;3.38;;
50429;SDS011;36359;41.556;-8.418;2023-03-20T14:55:49;7.80;;;3.88;;
50429;SDS011;36359;41.556;-8.418;2023-03-20T15:01:06;8.43;;;2.80;;
50429;SDS011;36359;41.556;-8.418;2023-03-20T15:03:38;10.98;;;3.60;;
50429;SDS011;36359;41.556;-8.418;2023-03-20T15:06:06;10.13;;;3.67;;
50429;SDS011;36359;41.556;-8.418;2023-03-20T15:08:42;11.13;;;4.88;;
50429;SDS011;36359;41.556;-8.418;2023-03-20T15:11:16;5.43;;;2.50;;
50429;SDS011;36359;41.556;-8.418;2023-03-20T15:13:42;11.25;;;4.90;;
50429;SDS011;36359;41.556;-8.418;2023-03-20T15:16:11;6.63;;;2.30;;
50429;SDS011;36359;41.556;-8.418;2023-03-20T15:21:47;7.28;;;2.55;;
50429;SDS011;36359;41.556;-8.418;2023-03-20T15:23:56;8.45;;;3.83;;
50429;SDS011;36359;41.556;-8.418;2023-03-20T15:26:23;5.38;;;2.78;;
50429;SDS011;36359;41.556;-8.418;2023-03-20T15:28:53;6.47;;;2.88;;
50429;SDS011;36359;41.556;-8.418;2023-03-20T15:31:26;5.65;;;2.47;;
50429;SDS011;36359;41.556;-8.418;2023-03-20T15:33:54;6.50;;;3.40;;
50429;SDS011;36359;41.556;-8.418;2023-03-20T15:36:23;7.20;;;2.60;;
50429;SDS011;36359;41.556;-8.418;2023-03-20T15:38:51;9.30;;;2.97;;
50429;SDS011;36359;41.556;-8.418;2023-03-20T15:41:27;5.63;;;3.35;;
50429;SDS011;36359;41.556;-8.418;2023-03-20T15:46:40;3.35;;;1.10;;
50429;SDS011;36359;41.556;-8.418;2023-03-20T15:49:26;7.20;;;3.40;;
50429;SDS011;36359;41.556;-8.418;2023-03-20T15:51:56;9.77;;;3.55;;
50429;SDS011;36359;41.556;-8.418;2023-03-20T15:54:25;5.45;;;2.58;;
50429;SDS011;36359;41.556;-8.418;2023-03-20T15:56:51;9.70;;;3.58;;
50429;SDS011;36359;41.556;-8.418;2023-03-20T15:59:22;7.13;;;3.15;;
50429;SDS011;36359;41.556;-8.418;2023-03-20T16:01:51;7.25;;;2.80;;
50429;SDS011;36359;41.556;-8.418;2023-03-20T16:04:20;9.87;;;3.53;;
50429;SDS011;36359;41.556;-8.418;2023-03-20T16:06:54;7.13;;;2.88;;
50429;SDS011;36359;41.556;-8.418;2023-03-20T16:09:25;8.07;;;3.10;;
50429;SDS011;36359;41.556;-8.418;2023-03-20T16:11:56;7.05;;;2.92;;
50429;SDS011;36359;41.556;-8.418;2023-03-20T16:14:24;8.18;;;4.38;;
50429;SDS011;36359;41.556;-8.418;2023-03-20T16:17:02;8.95;;;3.95;;
50429;SDS011;36359;41.556;-8.418;2023-03-20T16:19:29;11.85;;;7.80;;
50429;SDS011;36359;41.556;-8.418;2023-03-20T16:21:56;13.48;;;4.88;;
50429;SDS011;36359;41.556;-8.418;2023-03-20T16:24:26;4.97;;;2.70;;
50429;SDS011;36359;41.556;-8.418;2023-03-20T16:26:54;8.27;;;3.40;;
50429;SDS011;36359;41.556;-8.418;2023-03-20T16:29:22;6.97;;;3.58;;
50429;SDS011;36359;41.556;-8.418;2023-03-20T16:31:54;7.85;;;3.40;;
50429;SDS011;36359;41.556;-8.418;2023-03-20T16:34:25;6.40;;;3.60;;
50429;SDS011;36359;41.556;-8.418;2023-03-20T16:36:57;8.05;;;3.95;;
50429;SDS011;36359;41.556;-8.418;2023-03-20T16:39:25;9.65;;;3.67;;
50429;SDS011;36359;41.556;-8.418;2023-03-20T16:47:14;5.38;;;3.20;;
50429;SDS011;36359;41.556;-8.418;2023-03-20T16:52:28;9.75;;;3.22;;
50429;SDS011;36359;41.556;-8.418;2023-03-20T16:55:00;7.47;;;3.15;;
50429;SDS011;36359;41.556;-8.418;2023-03-20T16:57:26;7.10;;;3.28;;
50429;SDS011;36359;41.556;-8.418;2023-03-20T16:59:59;8.52;;;3.58;;
50429;SDS011;36359;41.556;-8.418;2023-03-20T17:02:37;7.93;;;3.30;;
50429;SDS011;36359;41.556;-8.418;2023-03-20T17:05:07;8.30;;;3.83;;
50429;SDS011;36359;41.556;-8.418;2023-03-20T17:07:37;7.45;;;3.38;;
50429;SDS011;36359;41.556;-8.418;2023-03-20T17:10:17;7.30;;;3.35;;
50429;SDS011;36359;41.556;-8.418;2023-03-20T17:12:47;6.68;;;3.15;;
50429;SDS011;36359;41.556;-8.418;2023-03-20T17:15:14;7.13;;;3.17;;
50429;SDS011;36359;41.556;-8.418;2023-03-20T17:17:42;7.38;;;3.08;;
50429;SDS011;36359;41.556;-8.418;2023-03-20T17:20:11;8.52;;;3.65;;
50429;SDS011;36359;41.556;-8.418;2023-03-20T17:22:43;7.90;;;3.30;;
50429;SDS011;36359;41.556;-8.418;2023-03-20T17:25:09;8.45;;;3.00;;
50429;SDS011;36359;41.556;-8.418;2023-03-20T17:27:35;6.82;;;2.83;;
50429;SDS011;36359;41.556;-8.418;2023-03-20T17:30:04;7.28;;;3.60;;
50429;SDS011;36359;41.556;-8.418;2023-03-20T17:32:31;5.82;;;3.45;;
50429;SDS011;36359;41.556;-8.418;2023-03-20T17:34:57;4.55;;;2.20;;
50429;SDS011;36359;41.556;-8.418;2023-03-20T17:37:24;4.28;;;2.20;;
50429;SDS011;36359;41.556;-8.418;2023-03-20T17:39:52;4.00;;;2.10;;
50429;SDS011;36359;41.556;-8.418;2023-03-20T17:42:21;8.88;;;2.92;;
50429;SDS011;36359;41.556;-8.418;2023-03-20T17:44:51;5.18;;;2.03;;
50429;SDS011;36359;41.556;-8.418;2023-03-20T17:47:20;4.05;;;1.55;;